Time;durP1;ratioP1;P1;durP2;ratioP2;P2;SDS_P1;SDS_P2;PMS_P1;PMS_P2;Temp;Humidity;BMP_temperature;BMP_pressure;BME280_temperature;BME280_humidity;BME280_pressure;Samples;Min_cycle;Max_cycle;Signal;HPM_P1;HPM_P2
2021/08/10 00:01:31;;;;;;;;;;;24.30;49.90;;;;;;1495267;77;738;-69
2021/08/10 00:03:33;;;;;;;;;;;24.30;49.80;;;;;;1498928;77;762;-69
2021/08/10 00:05:35;;;;;;;;;;;24.30;49.80;;;;;;1501727;77;1116;-69
2021/08/10 00:07:37;;;;;;;;;;;24.30;49.80;;;;;;1478714;79;880;-69
2021/08/10 00:09:39;;;;;;;;;;;24.30;49.70;;;;;;1505128;77;1943;-69
2021/08/10 00:11:40;;;;;;;;;;;24.30;49.80;;;;;;1501490;77;826;-71
2021/08/10 00:13:42;;;;;;;;;;;24.30;49.70;;;;;;1502017;77;726;-68
2021/08/10 00:15:44;;;;;;;;;;;24.40;49.80;;;;;;1506146;77;1117;-69
2021/08/10 00:17:46;;;;;;;;;;;24.40;49.70;;;;;;1502617;77;808;-68
2021/08/10 00:19:48;;;;;;;;;;;24.40;49.70;;;;;;1501030;77;750;-69
2021/08/10 00:21:50;;;;;;;;;;;24.40;49.70;;;;;;1491131;78;764;-69
2021/08/10 00:23:52;;;;;;;;;;;24.30;49.70;;;;;;1474955;78;1163;-69
2021/08/10 00:25:54;;;;;;;;;;;24.30;49.60;;;;;;1496043;77;747;-68
2021/08/10 00:27:56;;;;;;;;;;;24.30;49.60;;;;;;1508842;77;1131;-69
2021/08/10 00:29:58;;;;;;;;;;;24.30;49.50;;;;;;1505249;77;1917;-69
2021/08/10 00:32:00;;;;;;;;;;;24.30;49.50;;;;;;1506178;77;899;-69
2021/08/10 00:34:02;;;;;;;;;;;24.30;49.40;;;;;;1512136;77;1111;-69
2021/08/10 00:36:04;;;;;;;;;;;24.30;49.50;;;;;;1495428;78;712;-69
2021/08/10 00:38:06;;;;;;;;;;;24.30;49.40;;;;;;1469686;78;746;-68
2021/08/10 00:40:08;;;;;;;;;;;24.30;49.40;;;;;;1478033;78;897;-69
2021/08/10 00:42:10;;;;;;;;;;;24.30;49.40;;;;;;1470651;78;721;-68
2021/08/10 00:44:12;;;;;;;;;;;24.40;49.40;;;;;;1492975;78;1142;-69
2021/08/10 00:46:14;;;;;;;;;;;24.30;49.60;;;;;;1487998;78;747;-69
2021/08/10 00:48:18;;;;;;;;;;;24.30;49.60;;;;;;1505314;77;779;-68
2021/08/10 00:50:19;;;;;;;;;;;24.30;49.60;;;;;;1497719;78;1929;-70
2021/08/10 00:52:21;;;;;;;;;;;24.40;49.50;;;;;;1503090;77;734;-70
2021/08/10 00:54:24;;;;;;;;;;;24.30;49.50;;;;;;1494936;77;1143;-66
2021/08/10 00:56:26;;;;;;;;;;;24.30;49.40;;;;;;1506053;78;798;-69
2021/08/10 00:58:28;;;;;;;;;;;24.40;49.40;;;;;;1503759;77;737;-68
2021/08/10 01:00:29;;;;;;;;;;;24.30;49.40;;;;;;1508201;77;789;-68
2021/08/10 01:02:31;;;;;;;;;;;24.30;49.40;;;;;;1509314;77;675;-69
2021/08/10 01:04:34;;;;;;;;;;;24.30;49.40;;;;;;1502229;77;1145;-69
2021/08/10 01:06:41;;;;;;;;;;;24.30;49.40;;;;;;1497562;77;835;-70
2021/08/10 01:08:44;;;;;;;;;;;24.40;49.30;;;;;;1522704;77;1904;-69
2021/08/10 01:10:53;;;;;;;;;;;24.30;49.30;;;;;;1506155;77;1929;-70
2021/08/10 01:13:09;;;;;;;;;;;24.30;49.20;;;;;;1484324;78;2120;-69
2021/08/10 01:15:13;;;;;;;;;;;24.30;49.40;;;;;;1504158;77;1968;-70
2021/08/10 01:17:22;;;;;;;;;;;24.30;49.20;;;;;;1509335;77;848;-71
2021/08/10 01:19:42;;;;;;;;;;;24.30;49.40;;;;;;1465505;79;831;-70
2021/08/10 01:21:45;;;;;;;;;;;24.30;49.20;;;;;;1487262;78;768;-70
2021/08/10 01:23:49;;;;;;;;;;;24.40;49.20;;;;;;1477906;78;759;-69
2021/08/10 01:25:58;;;;;;;;;;;24.40;49.20;;;;;;1500061;77;720;-70
2021/08/10 01:28:17;;;;;;;;;;;24.30;49.20;;;;;;1490450;77;786;-69
2021/08/10 01:30:24;;;;;;;;;;;24.30;49.20;;;;;;1499062;77;1928;-70
2021/08/10 01:32:26;;;;;;;;;;;24.30;49.20;;;;;;1504846;77;956;-70
2021/08/10 01:34:36;;;;;;;;;;;24.30;49.20;;;;;;1509071;77;1107;-69
2021/08/10 01:36:38;;;;;;;;;;;24.40;49.20;;;;;;1492226;77;703;-70
2021/08/10 01:38:40;;;;;;;;;;;24.30;49.10;;;;;;1491893;77;810;-69
2021/08/10 01:40:42;;;;;;;;;;;24.30;49.20;;;;;;1501635;77;756;-69
2021/08/10 01:42:44;;;;;;;;;;;24.40;49.10;;;;;;1497378;77;774;-69
2021/08/10 01:44:45;;;;;;;;;;;24.40;49.10;;;;;;1491825;77;1110;-66
2021/08/10 01:46:47;;;;;;;;;;;24.30;49.00;;;;;;1505157;77;774;-69
2021/08/10 01:48:49;;;;;;;;;;;24.30;49.00;;;;;;1505674;77;759;-69
2021/08/10 01:50:51;;;;;;;;;;;24.40;49.00;;;;;;1505605;77;1939;-68
2021/08/10 01:52:53;;;;;;;;;;;24.40;48.90;;;;;;1500196;77;684;-68
2021/08/10 01:54:55;;;;;;;;;;;24.30;49.00;;;;;;1494823;77;1081;-69
2021/08/10 01:56:57;;;;;;;;;;;24.30;49.00;;;;;;1503084;77;741;-69
2021/08/10 01:58:59;;;;;;;;;;;24.30;49.00;;;;;;1489536;77;777;-70
2021/08/10 02:01:01;;;;;;;;;;;24.40;48.90;;;;;;1486895;78;693;-69
2021/08/10 02:03:05;;;;;;;;;;;24.30;49.00;;;;;;1493102;78;801;-69
2021/08/10 02:05:07;;;;;;;;;;;24.30;49.00;;;;;;1505484;78;1912;-69
2021/08/10 02:07:09;;;;;;;;;;;24.30;49.00;;;;;;1541652;75;795;-70
2021/08/10 02:09:11;;;;;;;;;;;24.30;48.90;;;;;;1533365;75;690;-69
2021/08/10 02:11:13;;;;;;;;;;;24.30;49.00;;;;;;1513993;77;1940;-69
2021/08/10 02:13:15;;;;;;;;;;;24.30;49.00;;;;;;1501831;77;748;-69
2021/08/10 02:15:16;;;;;;;;;;;24.20;48.80;;;;;;1501606;77;1148;-70
2021/08/10 02:17:18;;;;;;;;;;;24.30;48.90;;;;;;1503594;77;777;-67
2021/08/10 02:19:20;;;;;;;;;;;24.30;48.90;;;;;;1495190;77;815;-69
2021/08/10 02:21:26;;;;;;;;;;;24.30;48.90;;;;;;1522090;77;709;-69
2021/08/10 02:23:29;;;;;;;;;;;24.30;48.80;;;;;;1501957;77;789;-70
2021/08/10 02:25:31;;;;;;;;;;;24.30;48.80;;;;;;1502268;77;1168;-69
2021/08/10 02:27:52;;;;;;;;;;;24.30;48.80;;;;;;1478502;78;762;-69
2021/08/10 02:29:54;;;;;;;;;;;24.30;48.80;;;;;;1503710;77;1934;-67
2021/08/10 02:31:56;;;;;;;;;;;24.30;48.90;;;;;;1503270;76;720;-69
2021/08/10 02:33:58;;;;;;;;;;;24.30;48.80;;;;;;1506730;76;1140;-69
2021/08/10 02:36:00;;;;;;;;;;;24.30;48.90;;;;;;1512007;77;761;-69
2021/08/10 02:38:04;;;;;;;;;;;24.30;48.90;;;;;;1513415;77;795;-69
2021/08/10 02:40:07;;;;;;;;;;;24.30;48.90;;;;;;1515111;76;741;-69
2021/08/10 02:42:09;;;;;;;;;;;24.30;48.90;;;;;;1514927;76;739;-68
2021/08/10 02:44:10;;;;;;;;;;;24.30;48.90;;;;;;1506056;77;1153;-70
2021/08/10 02:46:12;;;;;;;;;;;24.30;48.90;;;;;;1514168;76;767;-70
2021/08/10 02:48:14;;;;;;;;;;;24.20;48.70;;;;;;1516388;76;783;-70
2021/08/10 02:50:16;;;;;;;;;;;24.30;48.90;;;;;;1514278;77;1929;-69
2021/08/10 02:52:18;;;;;;;;;;;24.30;48.90;;;;;;1487537;77;807;-70
2021/08/10 02:54:20;;;;;;;;;;;24.30;48.90;;;;;;1502685;77;1212;-70
2021/08/10 02:56:25;;;;;;;;;;;24.30;48.90;;;;;;1508419;77;788;-70
2021/08/10 02:58:28;;;;;;;;;;;24.30;48.90;;;;;;1502250;79;716;-69
2021/08/10 03:00:30;;;;;;;;;;;24.30;49.00;;;;;;1504937;77;805;-67
2021/08/10 03:02:33;;;;;;;;;;;24.30;49.00;;;;;;1497406;77;752;-69
2021/08/10 03:04:36;;;;;;;;;;;24.30;49.10;;;;;;1505547;73;218861;-62
2021/08/10 03:06:38;;;;;;;;;;;24.30;49.00;;;;;;1600912;73;708;-62
2021/08/10 03:08:41;;;;;;;;;;;24.30;49.00;;;;;;1609271;72;741;-59
2021/08/10 03:10:43;;;;;;;;;;;24.30;49.00;;;;;;1600522;73;1985;-58
2021/08/10 03:12:48;;;;;;;;;;;24.30;48.90;;;;;;1589800;73;1207;-59
2021/08/10 03:14:51;;;;;;;;;;;24.30;48.90;;;;;;1596542;74;820;-61
2021/08/10 03:16:52;;;;;;;;;;;24.30;48.90;;;;;;1595942;74;826;-60
2021/08/10 03:18:54;;;;;;;;;;;24.20;48.80;;;;;;1595523;74;716;-61
2021/08/10 03:20:57;;;;;;;;;;;24.30;48.80;;;;;;1588777;74;746;-61
2021/08/10 03:22:59;;;;;;;;;;;24.30;48.90;;;;;;1552898;75;1167;-60
2021/08/10 03:25:03;;;;;;;;;;;24.20;48.70;;;;;;1591554;74;670;-60
2021/08/10 03:27:05;;;;;;;;;;;24.20;48.60;;;;;;1583749;74;1428;-61
2021/08/10 03:29:07;;;;;;;;;;;24.30;48.60;;;;;;1576440;74;781;-60
2021/08/10 03:31:09;;;;;;;;;;;24.30;48.60;;;;;;1582300;74;1950;-59
2021/08/10 03:33:11;;;;;;;;;;;24.30;48.80;;;;;;1589904;74;1199;-59
2021/08/10 03:35:13;;;;;;;;;;;24.40;48.90;;;;;;1587518;74;760;-58
2021/08/10 03:37:15;;;;;;;;;;;24.30;48.90;;;;;;1597625;74;718;-60
2021/08/10 03:39:17;;;;;;;;;;;24.40;48.90;;;;;;1587814;73;813;-59
2021/08/10 03:41:19;;;;;;;;;;;24.30;49.00;;;;;;1578979;74;702;-59
2021/08/10 03:43:21;;;;;;;;;;;24.30;49.00;;;;;;1597062;74;1138;-58
2021/08/10 03:45:25;;;;;;;;;;;24.30;49.00;;;;;;1589507;74;716;-59
2021/08/10 03:47:27;;;;;;;;;;;24.30;49.10;;;;;;1585131;74;739;-60
2021/08/10 03:49:28;;;;;;;;;;;24.30;49.20;;;;;;1596515;74;659;-61
2021/08/10 03:51:30;;;;;;;;;;;24.30;49.20;;;;;;1596350;73;1952;-60
2021/08/10 03:53:32;;;;;;;;;;;24.30;49.10;;;;;;1605417;73;1127;-60
2021/08/10 03:55:34;;;;;;;;;;;24.30;49.20;;;;;;1597210;74;772;-58
2021/08/10 03:57:36;;;;;;;;;;;24.30;49.20;;;;;;1596301;74;742;-60
2021/08/10 03:59:38;;;;;;;;;;;24.30;49.20;;;;;;1591075;73;762;-60
2021/08/10 04:01:40;;;;;;;;;;;24.40;49.20;;;;;;1596589;74;748;-60
2021/08/10 04:03:42;;;;;;;;;;;24.40;49.20;;;;;;1589683;74;1098;-60
2021/08/10 04:05:44;;;;;;;;;;;24.30;49.20;;;;;;1600969;73;777;-60
2021/08/10 04:07:46;;;;;;;;;;;24.30;49.20;;;;;;1617407;73;738;-59
2021/08/10 04:09:48;;;;;;;;;;;24.30;49.20;;;;;;1619192;72;760;-60
2021/08/10 04:11:50;;;;;;;;;;;24.30;49.30;;;;;;1617103;72;1949;-60
2021/08/10 04:13:52;;;;;;;;;;;24.30;49.40;;;;;;1624524;72;1223;-60
2021/08/10 04:15:54;;;;;;;;;;;24.30;49.30;;;;;;1625307;73;805;-59
2021/08/10 04:17:56;;;;;;;;;;;24.30;49.40;;;;;;1623030;72;678;-60
2021/08/10 04:19:59;;;;;;;;;;;24.30;49.40;;;;;;1619535;72;764;-61
2021/08/10 04:22:01;;;;;;;;;;;24.40;49.40;;;;;;1624060;72;1124;-60
2021/08/10 04:24:05;;;;;;;;;;;24.30;49.40;;;;;;1622727;72;1127;-60
2021/08/10 04:26:06;;;;;;;;;;;24.30;49.50;;;;;;1621360;72;1632;-59
2021/08/10 04:28:08;;;;;;;;;;;24.30;49.50;;;;;;1613167;72;887;-60
2021/08/10 04:30:12;;;;;;;;;;;24.30;49.50;;;;;;1619585;72;1943;-59
2021/08/10 04:32:14;;;;;;;;;;;24.30;49.50;;;;;;1621324;72;1147;-59
2021/08/10 04:34:16;;;;;;;;;;;24.20;49.40;;;;;;1612694;72;787;-60
2021/08/10 04:36:18;;;;;;;;;;;24.30;49.60;;;;;;1611459;71;814;-59
2021/08/10 04:38:20;;;;;;;;;;;24.30;49.60;;;;;;1624167;72;756;-59
2021/08/10 04:40:22;;;;;;;;;;;24.30;49.70;;;;;;1606995;72;777;-59
2021/08/10 04:42:23;;;;;;;;;;;24.20;49.50;;;;;;1625366;72;1081;-61
2021/08/10 04:44:25;;;;;;;;;;;24.30;49.70;;;;;;1621900;72;748;-59
2021/08/10 04:46:27;;;;;;;;;;;24.20;49.60;;;;;;1614601;72;777;-59
2021/08/10 04:48:29;;;;;;;;;;;24.20;49.70;;;;;;1619531;73;770;-60
2021/08/10 04:50:31;;;;;;;;;;;24.30;49.80;;;;;;1624342;72;1935;-60
2021/08/10 04:52:33;;;;;;;;;;;24.30;49.80;;;;;;1618514;72;1144;-60
2021/08/10 04:54:35;;;;;;;;;;;24.30;49.90;;;;;;1616544;72;721;-60
2021/08/10 04:56:37;;;;;;;;;;;24.30;49.80;;;;;;1626091;72;788;-59
2021/08/10 04:58:39;;;;;;;;;;;24.30;49.90;;;;;;1623902;73;763;-60
2021/08/10 05:00:40;;;;;;;;;;;24.30;50.00;;;;;;1617314;72;808;-59
2021/08/10 05:02:42;;;;;;;;;;;24.30;50.00;;;;;;1623265;72;1092;-59
2021/08/10 05:04:44;;;;;;;;;;;24.30;50.10;;;;;;1616017;71;769;-59
2021/08/10 05:06:46;;;;;;;;;;;24.30;50.10;;;;;;1618745;71;801;-59
2021/08/10 05:08:48;;;;;;;;;;;24.30;50.00;;;;;;1625716;72;952;-60
2021/08/10 05:10:50;;;;;;;;;;;24.30;50.10;;;;;;1619971;73;1940;-59
2021/08/10 05:12:52;;;;;;;;;;;24.20;50.00;;;;;;1622115;73;1143;-60
2021/08/10 05:14:54;;;;;;;;;;;24.30;50.20;;;;;;1620933;72;810;-60
2021/08/10 05:16:55;;;;;;;;;;;24.30;50.20;;;;;;1619959;72;786;-59
2021/08/10 05:18:57;;;;;;;;;;;24.30;50.20;;;;;;1616654;72;710;-59
2021/08/10 05:20:59;;;;;;;;;;;24.20;50.10;;;;;;1610493;72;771;-59
2021/08/10 05:23:01;;;;;;;;;;;24.30;50.30;;;;;;1618094;73;1131;-60
2021/08/10 05:25:05;;;;;;;;;;;24.30;50.30;;;;;;1623031;72;759;-60
2021/08/10 05:27:07;;;;;;;;;;;24.30;50.30;;;;;;1609057;72;2021;-60
2021/08/10 05:29:09;;;;;;;;;;;24.30;50.30;;;;;;1625106;73;747;-61
2021/08/10 05:31:10;;;;;;;;;;;24.30;50.40;;;;;;1621464;71;1928;-60
2021/08/10 05:33:12;;;;;;;;;;;24.30;50.40;;;;;;1621564;72;1152;-59
2021/08/10 05:35:14;;;;;;;;;;;24.30;50.40;;;;;;1614573;73;802;-59
2021/08/10 05:37:16;;;;;;;;;;;24.30;50.40;;;;;;1606312;72;766;-60
2021/08/10 05:39:18;;;;;;;;;;;24.30;50.40;;;;;;1621577;71;773;-60
2021/08/10 05:41:20;;;;;;;;;;;24.30;50.40;;;;;;1618417;71;686;-60
2021/08/10 05:43:22;;;;;;;;;;;24.30;50.50;;;;;;1622550;72;1128;-60
2021/08/10 05:45:24;;;;;;;;;;;24.30;50.50;;;;;;1626599;73;733;-59
2021/08/10 05:47:26;;;;;;;;;;;24.30;50.50;;;;;;1613941;72;738;-59
2021/08/10 05:49:28;;;;;;;;;;;24.30;50.50;;;;;;1618823;72;718;-60
2021/08/10 05:51:31;;;;;;;;;;;24.30;50.60;;;;;;1614375;72;1932;-58
2021/08/10 05:53:33;;;;;;;;;;;24.30;50.60;;;;;;1620941;72;1069;-59
2021/08/10 05:55:35;;;;;;;;;;;24.30;50.60;;;;;;1616951;72;742;-59
2021/08/10 05:57:37;;;;;;;;;;;24.30;50.70;;;;;;1625009;72;743;-59
2021/08/10 05:59:39;;;;;;;;;;;24.30;50.60;;;;;;1621214;71;869;-57
2021/08/10 06:01:40;;;;;;;;;;;24.30;50.70;;;;;;1624787;72;784;-59
2021/08/10 06:03:42;;;;;;;;;;;24.30;50.70;;;;;;1618552;72;1088;-60
2021/08/10 06:05:44;;;;;;;;;;;24.30;50.70;;;;;;1621636;72;799;-60
2021/08/10 06:07:46;;;;;;;;;;;24.40;50.80;;;;;;1626576;72;751;-59
2021/08/10 06:09:48;;;;;;;;;;;24.30;51.00;;;;;;1618167;71;706;-60
2021/08/10 06:11:50;;;;;;;;;;;24.40;50.70;;;;;;1622812;72;1943;-59
2021/08/10 06:13:52;;;;;;;;;;;24.40;50.20;;;;;;1626671;72;1118;-60
2021/08/10 06:15:54;;;;;;;;;;;24.40;49.40;;;;;;1620092;72;686;-62
2021/08/10 06:17:56;;;;;;;;;;;24.40;49.30;;;;;;1619391;71;782;-61
2021/08/10 06:19:58;;;;;;;;;;;24.30;49.20;;;;;;1620684;71;733;-61
2021/08/10 06:22:00;;;;;;;;;;;24.30;49.10;;;;;;1622681;72;681;-63
2021/08/10 06:24:02;;;;;;;;;;;24.30;48.90;;;;;;1622108;72;1122;-63
2021/08/10 06:26:04;;;;;;;;;;;24.30;48.80;;;;;;1622000;73;647;-61
2021/08/10 06:28:06;;;;;;;;;;;24.30;48.70;;;;;;1614076;72;723;-59
2021/08/10 06:30:08;;;;;;;;;;;24.30;48.60;;;;;;1622827;73;676;-60
2021/08/10 06:32:10;;;;;;;;;;;24.20;48.50;;;;;;1617886;72;1942;-60
2021/08/10 06:34:11;;;;;;;;;;;24.20;48.50;;;;;;1625278;72;650;-59
2021/08/10 06:36:13;;;;;;;;;;;24.20;48.50;;;;;;1617858;72;727;-60
2021/08/10 06:38:15;;;;;;;;;;;24.20;48.50;;;;;;1614308;72;791;-62
2021/08/10 06:40:17;;;;;;;;;;;24.20;48.50;;;;;;1625914;71;839;-63
2021/08/10 06:42:19;;;;;;;;;;;24.20;48.50;;;;;;1622303;71;1133;-63
2021/08/10 06:44:21;;;;;;;;;;;24.20;48.50;;;;;;1624404;71;756;-61
2021/08/10 06:46:25;;;;;;;;;;;24.10;48.50;;;;;;1623052;73;741;-63
2021/08/10 06:48:26;;;;;;;;;;;24.10;48.50;;;;;;1623314;72;766;-60
2021/08/10 06:50:29;;;;;;;;;;;24.20;48.50;;;;;;1623591;72;724;-59
2021/08/10 06:52:30;;;;;;;;;;;24.20;48.50;;;;;;1615692;72;1943;-60
2021/08/10 06:54:32;;;;;;;;;;;24.10;48.60;;;;;;1615935;72;757;-61
2021/08/10 06:56:34;;;;;;;;;;;24.10;48.60;;;;;;1610960;72;800;-62
2021/08/10 06:58:36;;;;;;;;;;;24.10;48.60;;;;;;1617943;72;864;-62
2021/08/10 07:00:39;;;;;;;;;;;24.20;48.60;;;;;;1620014;73;771;-63
2021/08/10 07:02:42;;;;;;;;;;;24.10;48.60;;;;;;1617962;72;1158;-59
2021/08/10 07:04:44;;;;;;;;;;;24.10;48.60;;;;;;1609159;72;806;-60
2021/08/10 07:06:46;;;;;;;;;;;24.10;48.60;;;;;;1619722;73;750;-59
2021/08/10 07:08:53;;;;;;;;;;;24.20;48.50;;;;;;1616948;73;818;-61
2021/08/10 07:10:51;;;;;;;;;;;24.10;48.60;;;;;;1622875;73;1604;-61
2021/08/10 07:12:53;;;;;;;;;;;24.10;48.50;;;;;;1624606;73;1935;-60
2021/08/10 07:14:55;;;;;;;;;;;24.10;48.50;;;;;;1609813;72;732;-63
2021/08/10 07:16:57;;;;;;;;;;;24.10;48.60;;;;;;1624833;71;722;-63
2021/08/10 07:18:59;;;;;;;;;;;24.10;48.60;;;;;;1625951;71;692;-59
2021/08/10 07:21:01;;;;;;;;;;;24.10;48.60;;;;;;1625687;72;724;-60
2021/08/10 07:23:03;;;;;;;;;;;24.10;48.60;;;;;;1611650;72;1173;-62
2021/08/10 07:25:05;;;;;;;;;;;24.10;48.60;;;;;;1612632;72;712;-60
2021/08/10 07:27:07;;;;;;;;;;;24.10;48.60;;;;;;1610807;73;784;-60
2021/08/10 07:29:09;;;;;;;;;;;24.10;48.60;;;;;;1615916;72;715;-61
2021/08/10 07:31:10;;;;;;;;;;;24.10;48.60;;;;;;1623968;72;746;-61
2021/08/10 07:33:12;;;;;;;;;;;24.10;48.60;;;;;;1623070;72;1948;-59
2021/08/10 07:35:14;;;;;;;;;;;24.10;48.70;;;;;;1620916;72;795;-63
2021/08/10 07:37:16;;;;;;;;;;;24.10;48.80;;;;;;1625165;72;764;-60
2021/08/10 07:39:18;;;;;;;;;;;24.10;49.00;;;;;;1626516;72;756;-60
2021/08/10 07:41:20;;;;;;;;;;;24.10;49.10;;;;;;1613376;72;710;-59
2021/08/10 07:43:22;;;;;;;;;;;24.20;49.20;;;;;;1607941;72;1122;-60
2021/08/10 07:45:24;;;;;;;;;;;24.30;49.20;;;;;;1615361;73;702;-60
2021/08/10 07:47:26;;;;;;;;;;;24.40;49.00;;;;;;1626744;72;763;-59
2021/08/10 07:49:28;;;;;;;;;;;24.50;48.90;;;;;;1620266;71;782;-60
2021/08/10 07:51:30;;;;;;;;;;;24.50;48.50;;;;;;1623224;72;1952;-60
2021/08/10 07:53:32;;;;;;;;;;;24.50;48.40;;;;;;1611066;71;1131;-60
2021/08/10 07:55:35;;;;;;;;;;;24.50;48.30;;;;;;1618160;72;766;-61
2021/08/10 07:57:38;;;;;;;;;;;24.60;48.30;;;;;;1614590;72;699;-60
2021/08/10 07:59:40;;;;;;;;;;;24.60;48.40;;;;;;1617975;72;778;-62
2021/08/10 08:01:42;;;;;;;;;;;24.60;48.40;;;;;;1617142;72;801;-63
2021/08/10 08:03:44;;;;;;;;;;;24.70;47.90;;;;;;1610076;72;1128;-64
2021/08/10 08:05:47;;;;;;;;;;;24.70;47.90;;;;;;1609663;73;816;-60
2021/08/10 08:07:49;;;;;;;;;;;24.80;47.80;;;;;;1620310;72;844;-61
2021/08/10 08:09:50;;;;;;;;;;;24.80;47.80;;;;;;1621849;71;820;-64
2021/08/10 08:11:52;;;;;;;;;;;24.80;47.70;;;;;;1612415;72;1941;-60
2021/08/10 08:13:54;;;;;;;;;;;24.80;47.60;;;;;;1629453;73;1110;-60
2021/08/10 08:15:56;;;;;;;;;;;24.90;47.60;;;;;;1626967;72;784;-60
2021/08/10 08:17:58;;;;;;;;;;;24.90;47.50;;;;;;1603445;72;638;-61
2021/08/10 08:20:00;;;;;;;;;;;24.90;47.10;;;;;;1613593;72;736;-61
2021/08/10 08:22:02;;;;;;;;;;;24.90;47.00;;;;;;1623206;72;919;-60
2021/08/10 08:24:04;;;;;;;;;;;25.00;47.00;;;;;;1626378;72;1110;-62
2021/08/10 08:26:06;;;;;;;;;;;25.00;47.10;;;;;;1625221;73;785;-61
2021/08/10 08:28:11;;;;;;;;;;;25.00;46.80;;;;;;1626281;72;659;-63
2021/08/10 08:30:13;;;;;;;;;;;25.10;46.80;;;;;;1615414;72;815;-60
2021/08/10 08:32:15;;;;;;;;;;;25.00;46.70;;;;;;1627518;72;1939;-65
2021/08/10 08:34:17;;;;;;;;;;;25.10;46.60;;;;;;1622435;72;725;-63
2021/08/10 08:36:19;;;;;;;;;;;25.20;46.40;;;;;;1621656;72;662;-60
2021/08/10 08:38:21;;;;;;;;;;;25.10;46.50;;;;;;1624779;72;769;-61
2021/08/10 08:40:23;;;;;;;;;;;25.10;46.40;;;;;;1626126;72;758;-60
2021/08/10 08:42:25;;;;;;;;;;;25.20;46.10;;;;;;1619000;72;1137;-60
2021/08/10 08:44:34;;;;;;;;;;;25.10;46.00;;;;;;1626037;72;757;-60
2021/08/10 08:46:31;;;;;;;;;;;25.10;45.90;;;;;;1621606;72;1617;-61
2021/08/10 08:48:33;;;;;;;;;;;25.10;45.90;;;;;;1621694;71;779;-59
2021/08/10 08:50:35;;;;;;;;;;;25.20;45.70;;;;;;1625843;71;738;-60
2021/08/10 08:52:38;;;;;;;;;;;25.10;45.50;;;;;;1625541;72;1897;-61
2021/08/10 08:54:40;;;;;;;;;;;25.20;45.20;;;;;;1624467;72;786;-61
2021/08/10 08:56:42;;;;;;;;;;;25.10;45.00;;;;;;1626739;72;758;-60
2021/08/10 08:58:44;;;;;;;;;;;25.10;45.00;;;;;;1621181;72;790;-60
2021/08/10 09:00:46;;;;;;;;;;;25.10;45.20;;;;;;1623471;71;658;-61
2021/08/10 09:02:48;;;;;;;;;;;25.10;45.10;;;;;;1623117;72;1138;-61
2021/08/10 09:04:50;;;;;;;;;;;25.10;45.00;;;;;;1612728;72;225851;-69
2021/08/10 09:06:53;;;;;;;;;;;25.20;45.00;;;;;;1572454;74;770;-69
2021/08/10 09:08:56;;;;;;;;;;;25.20;44.90;;;;;;1580275;73;1144;-70
2021/08/10 09:10:59;;;;;;;;;;;25.10;44.90;;;;;;1561087;73;830;-70
2021/08/10 09:13:01;;;;;;;;;;;25.30;44.80;;;;;;1559109;74;1971;-70
2021/08/10 09:15:04;;;;;;;;;;;25.30;44.90;;;;;;1559545;74;1238;-69
2021/08/10 09:17:06;;;;;;;;;;;25.30;44.80;;;;;;1586378;74;881;-70
2021/08/10 09:19:08;;;;;;;;;;;25.20;44.70;;;;;;1581997;73;692;-70
2021/08/10 09:21:10;;;;;;;;;;;25.20;44.70;;;;;;1590269;73;774;-68
2021/08/10 09:23:12;;;;;;;;;;;25.10;44.70;;;;;;1574458;73;645;-70
2021/08/10 09:25:16;;;;;;;;;;;25.20;44.70;;;;;;1559043;73;1154;-70
2021/08/10 09:27:28;;;;;;;;;;;25.20;44.70;;;;;;1564494;74;750;-69
2021/08/10 09:29:31;;;;;;;;;;;25.20;44.70;;;;;;1563793;73;728;-70
2021/08/10 09:31:38;;;;;;;;;;;25.20;44.00;;;;;;1560121;73;1825;-70
2021/08/10 09:33:40;;;;;;;;;;;25.10;44.40;;;;;;1572406;73;1926;-69
2021/08/10 09:35:42;;;;;;;;;;;25.20;44.20;;;;;;1570512;73;1175;-70
2021/08/10 09:37:45;;;;;;;;;;;25.20;44.00;;;;;;1582861;73;785;-70
2021/08/10 09:39:47;;;;;;;;;;;25.10;44.10;;;;;;1583187;74;1918;-70
2021/08/10 09:42:02;;;;;;;;;;;25.10;43.80;;;;;;1562640;73;707;-69
2021/08/10 09:44:19;;;;;;;;;;;25.10;43.90;;;;;;1561196;73;729;-70
2021/08/10 09:46:22;;;;;;;;;;;25.10;43.70;;;;;;1563183;73;1118;-69
2021/08/10 09:48:24;;;;;;;;;;;25.20;43.70;;;;;;1552624;73;844;-70
2021/08/10 09:50:26;;;;;;;;;;;25.20;42.80;;;;;;1575111;74;731;-70
2021/08/10 09:52:29;;;;;;;;;;;25.10;43.70;;;;;;1563162;74;1926;-70
2021/08/10 09:54:31;;;;;;;;;;;25.10;43.70;;;;;;1560929;73;1128;-70
2021/08/10 09:56:37;;;;;;;;;;;25.20;43.70;;;;;;1559241;73;816;-70
2021/08/10 09:58:53;;;;;;;;;;;25.10;43.60;;;;;;1556159;73;1780;-70
2021/08/10 10:01:00;;;;;;;;;;;25.10;43.70;;;;;;1558836;73;1795;-69
2021/08/10 10:03:00;;;;;;;;;;;25.20;43.70;;;;;;1576062;74;1444;-69
2021/08/10 10:05:02;;;;;;;;;;;25.10;43.80;;;;;;1569245;73;1821;-70
2021/08/10 10:07:11;;;;;;;;;;;25.10;43.90;;;;;;1569528;74;843;-70
2021/08/10 10:09:13;;;;;;;;;;;25.10;43.90;;;;;;1561678;73;734;-70
2021/08/10 10:11:15;;;;;;;;;;;25.10;43.90;;;;;;1564063;73;932;-69
2021/08/10 10:13:17;;;;;;;;;;;25.10;44.00;;;;;;1556629;73;1909;-69
2021/08/10 10:15:19;;;;;;;;;;;25.10;44.00;;;;;;1559062;73;1159;-69
2021/08/10 10:17:21;;;;;;;;;;;25.10;44.00;;;;;;1559679;74;708;-69
2021/08/10 10:19:23;;;;;;;;;;;25.10;44.00;;;;;;1569186;73;723;-69
2021/08/10 10:21:25;;;;;;;;;;;25.10;43.80;;;;;;1562867;74;823;-70
2021/08/10 10:23:27;;;;;;;;;;;25.20;43.90;;;;;;1562576;73;685;-70
2021/08/10 10:25:30;;;;;;;;;;;25.10;43.90;;;;;;1557824;74;1169;-70
2021/08/10 10:27:34;;;;;;;;;;;25.10;44.00;;;;;;1571215;73;678;-70
2021/08/10 10:29:36;;;;;;;;;;;25.10;44.10;;;;;;1565156;73;782;-70
2021/08/10 10:31:38;;;;;;;;;;;25.10;43.90;;;;;;1558921;74;679;-69
2021/08/10 10:33:40;;;;;;;;;;;25.10;44.00;;;;;;1557212;73;1927;-69
2021/08/10 10:35:42;;;;;;;;;;;25.10;44.20;;;;;;1562773;73;1149;-69
2021/08/10 10:37:44;;;;;;;;;;;25.00;44.30;;;;;;1561944;73;773;-70
2021/08/10 10:39:46;;;;;;;;;;;25.10;44.30;;;;;;1575507;73;657;-69
2021/08/10 10:41:48;;;;;;;;;;;25.10;43.90;;;;;;1562627;73;664;-69
2021/08/10 10:43:53;;;;;;;;;;;25.00;44.30;;;;;;1560942;73;807;-69
2021/08/10 10:45:55;;;;;;;;;;;25.00;44.20;;;;;;1569675;74;1159;-73
2021/08/10 10:47:57;;;;;;;;;;;25.00;44.20;;;;;;1562513;73;759;-70
2021/08/10 10:50:02;;;;;;;;;;;25.00;44.20;;;;;;1573107;74;763;-70
2021/08/10 10:52:10;;;;;;;;;;;25.00;44.10;;;;;;1575279;74;682;-70
2021/08/10 10:54:27;;;;;;;;;;;25.00;44.00;;;;;;1578670;74;1929;-70
2021/08/10 10:56:30;;;;;;;;;;;25.00;44.40;;;;;;1576527;73;1115;-70
2021/08/10 10:58:33;;;;;;;;;;;25.00;44.50;;;;;;1574304;73;696;-70
2021/08/10 11:00:35;;;;;;;;;;;25.00;44.40;;;;;;1571863;74;814;-69
2021/08/10 11:02:37;;;;;;;;;;;25.00;44.50;;;;;;1587542;74;792;-70
2021/08/10 11:04:38;;;;;;;;;;;25.00;44.60;;;;;;1563614;74;1150;-69
2021/08/10 11:06:49;;;;;;;;;;;25.00;44.50;;;;;;1585174;74;751;-70
2021/08/10 11:08:51;;;;;;;;;;;25.00;44.70;;;;;;1579899;73;1564;-70
2021/08/10 11:10:53;;;;;;;;;;;25.10;44.60;;;;;;1557419;74;787;-70
2021/08/10 11:12:55;;;;;;;;;;;25.00;44.60;;;;;;1588554;73;1911;-70
2021/08/10 11:14:57;;;;;;;;;;;25.00;44.70;;;;;;1565954;73;1206;-69
2021/08/10 11:17:06;;;;;;;;;;;25.00;44.80;;;;;;1570466;73;777;-69
2021/08/10 11:19:22;;;;;;;;;;;25.00;44.80;;;;;;1583685;73;1954;-70
2021/08/10 11:21:24;;;;;;;;;;;25.00;44.90;;;;;;1533865;74;1264;-70
2021/08/10 11:23:28;;;;;;;;;;;25.00;44.80;;;;;;1568456;75;759;-70
2021/08/10 11:25:29;;;;;;;;;;;25.00;44.70;;;;;;1568744;73;1111;-70
2021/08/10 11:27:43;;;;;;;;;;;25.00;44.70;;;;;;1577271;73;767;-70
2021/08/10 11:29:42;;;;;;;;;;;25.00;44.70;;;;;;1579224;73;1617;-70
2021/08/10 11:31:50;;;;;;;;;;;25.00;44.80;;;;;;1572501;74;766;-70
2021/08/10 11:33:48;;;;;;;;;;;25.00;44.80;;;;;;1580900;74;1924;-70
2021/08/10 11:35:50;;;;;;;;;;;24.90;44.90;;;;;;1555874;73;1185;-69
2021/08/10 11:38:08;;;;;;;;;;;25.00;44.80;;;;;;1568044;74;876;-69
2021/08/10 11:40:11;;;;;;;;;;;25.00;44.90;;;;;;1567968;73;774;-70
2021/08/10 11:42:18;;;;;;;;;;;25.00;45.00;;;;;;1557109;73;689;-70
2021/08/10 11:44:20;;;;;;;;;;;25.00;45.00;;;;;;1553447;73;1159;-70
2021/08/10 11:46:25;;;;;;;;;;;25.00;45.00;;;;;;1556428;73;1110;-69
2021/08/10 11:48:27;;;;;;;;;;;25.00;45.00;;;;;;1565075;74;835;-69
2021/08/10 11:50:30;;;;;;;;;;;25.00;44.90;;;;;;1559627;74;726;-69
2021/08/10 11:52:42;;;;;;;;;;;25.00;45.00;;;;;;1566338;73;806;-70
2021/08/10 11:54:45;;;;;;;;;;;25.00;44.90;;;;;;1562348;73;1843;-70
2021/08/10 11:56:53;;;;;;;;;;;24.90;45.10;;;;;;1556128;74;1071;-70
2021/08/10 11:58:55;;;;;;;;;;;24.90;45.00;;;;;;1553992;73;1668;-70
2021/08/10 12:00:58;;;;;;;;;;;25.00;45.20;;;;;;1566076;74;746;-70
2021/08/10 12:03:00;;;;;;;;;;;25.00;45.20;;;;;;1563242;74;939;-70
2021/08/10 12:05:04;;;;;;;;;;;25.00;45.20;;;;;;1567021;73;1124;-69
2021/08/10 12:07:06;;;;;;;;;;;25.00;45.50;;;;;;1568124;73;1882;-69
2021/08/10 12:09:08;;;;;;;;;;;24.90;45.60;;;;;;1564511;74;864;-69
2021/08/10 12:11:10;;;;;;;;;;;25.00;45.70;;;;;;1558231;74;605;-69
2021/08/10 12:13:22;;;;;;;;;;;25.10;45.70;;;;;;1558164;74;1925;-69